createdAt,value
2023-02-05T00:01:35.184Z,8.68
2023-02-05T00:11:35.064Z,8.68
2023-02-05T00:21:35.024Z,8.66
2023-02-05T00:31:35.629Z,8.60
2023-02-05T00:41:36.554Z,8.52
2023-02-05T00:51:37.034Z,8.43
2023-02-05T01:01:37.163Z,8.37
2023-02-05T01:11:37.340Z,8.32
2023-02-05T01:21:37.276Z,8.27
2023-02-05T01:31:37.279Z,8.23
2023-02-05T01:41:37.211Z,8.21
2023-02-05T01:51:37.164Z,8.18
2023-02-05T02:01:37.145Z,8.17
2023-02-05T02:11:37.543Z,8.14
2023-02-05T02:21:38.436Z,8.09
2023-02-05T02:31:38.180Z,8.06
2023-02-05T02:41:38.332Z,8.07
2023-02-05T02:51:38.480Z,8.12
2023-02-05T03:01:39.037Z,8.18
2023-02-05T03:11:40.954Z,8.23
2023-02-05T03:21:41.312Z,8.24
2023-02-05T03:31:53.039Z,8.25
2023-02-05T03:41:58.322Z,8.27
2023-02-05T03:51:58.927Z,8.30
2023-02-05T04:02:01.233Z,8.32
2023-02-05T04:12:02.065Z,8.32
2023-02-05T04:22:04.189Z,8.30
2023-02-05T04:32:04.406Z,8.29
2023-02-05T04:42:04.378Z,8.30
2023-02-05T04:52:04.389Z,8.30
2023-02-05T05:02:04.497Z,8.26
2023-02-05T05:12:04.384Z,8.21
2023-02-05T05:22:04.366Z,8.15
2023-02-05T05:32:04.548Z,8.11
2023-02-05T05:42:22.808Z,8.12
2023-02-05T05:52:23.558Z,8.17
2023-02-05T06:02:23.447Z,8.26
2023-02-05T06:12:23.526Z,8.32
2023-02-05T06:22:23.490Z,8.35
2023-02-05T06:32:26.460Z,8.38
2023-02-05T06:42:25.635Z,8.39
2023-02-05T06:52:25.520Z,8.41
2023-02-05T07:02:25.561Z,8.43
2023-02-05T07:12:25.497Z,8.47
2023-02-05T07:22:25.622Z,8.50
2023-02-05T07:32:25.501Z,8.53
2023-02-05T07:42:27.399Z,8.60
2023-02-05T07:52:27.674Z,8.68
2023-02-05T08:02:27.602Z,8.74
2023-02-05T08:12:27.592Z,8.78
2023-02-05T08:22:27.621Z,8.81
2023-02-05T08:32:27.604Z,8.81
2023-02-05T08:42:27.721Z,8.78
2023-02-05T08:52:27.725Z,8.76
2023-02-05T09:02:29.959Z,8.73
2023-02-05T09:12:29.732Z,8.70
2023-02-05T09:22:29.706Z,8.72
2023-02-05T09:32:29.725Z,8.73
2023-02-05T09:42:29.165Z,8.85
2023-02-05T09:52:29.814Z,9.01
2023-02-05T10:02:31.203Z,9.04
2023-02-05T10:12:31.682Z,9.10
2023-02-05T10:22:31.899Z,9.10
2023-02-05T10:32:31.765Z,9.02
2023-02-05T10:42:32.560Z,8.98
2023-02-05T10:52:32.889Z,9.01
2023-02-05T11:02:32.917Z,9.03
2023-02-05T11:12:33.333Z,9.05
2023-02-05T11:22:34.799Z,9.12
2023-02-05T11:32:35.543Z,9.24
2023-02-05T11:42:35.888Z,9.33
2023-02-05T11:52:36.982Z,9.48
2023-02-05T12:02:37.040Z,9.55
2023-02-05T12:12:36.936Z,9.40
2023-02-05T12:22:37.016Z,9.10
2023-02-05T12:32:36.927Z,8.81
2023-02-05T12:42:36.973Z,8.63
2023-02-05T12:52:37.041Z,8.51
2023-02-05T13:02:36.946Z,8.43
2023-02-05T13:12:36.956Z,8.42
2023-02-05T13:22:55.380Z,8.39
2023-02-05T13:32:56.306Z,8.25
2023-02-05T13:42:56.003Z,8.12
2023-02-05T13:52:56.070Z,8.03
2023-02-05T14:02:55.988Z,7.97
2023-02-05T14:12:56.032Z,7.88
2023-02-05T14:22:57.435Z,7.78
2023-02-05T14:32:58.078Z,7.75
2023-02-05T14:43:09.653Z,7.79
2023-02-05T14:53:00.249Z,7.88
2023-02-05T15:03:00.166Z,7.97
2023-02-05T15:13:00.103Z,8.07
2023-02-05T15:23:00.179Z,8.18
2023-02-05T15:33:00.150Z,8.28
2023-02-05T15:43:00.223Z,8.28
2023-02-05T15:53:00.241Z,8.21
2023-02-05T16:03:00.241Z,8.14
2023-02-05T16:13:00.272Z,8.07
2023-02-05T16:23:00.389Z,8.02
2023-02-05T16:33:00.327Z,7.95
2023-02-05T16:43:00.254Z,7.87
2023-02-05T16:53:00.396Z,7.82
2023-02-05T17:03:00.366Z,7.74
2023-02-05T17:13:02.713Z,7.61
2023-02-05T17:23:03.268Z,7.44
2023-02-05T17:33:04.848Z,7.23
2023-02-05T17:43:05.263Z,6.98
2023-02-05T17:53:05.423Z,6.76
2023-02-05T18:03:05.350Z,6.64
2023-02-05T18:13:05.448Z,6.64
2023-02-05T18:23:05.494Z,6.68
2023-02-05T18:33:06.378Z,6.82
2023-02-05T18:43:06.411Z,6.99
2023-02-05T18:53:06.629Z,7.17
2023-02-05T19:03:06.490Z,7.35
2023-02-05T19:13:06.475Z,7.48
2023-02-05T19:23:06.360Z,7.57
2023-02-05T19:33:06.414Z,7.63
2023-02-05T19:43:06.561Z,7.65
2023-02-05T19:53:06.407Z,7.62
2023-02-05T20:03:06.445Z,7.57
2023-02-05T20:13:07.090Z,7.50
2023-02-05T20:23:07.837Z,7.46
2023-02-05T20:33:08.498Z,7.36
2023-02-05T20:43:08.745Z,7.10
2023-02-05T20:53:08.463Z,6.77
2023-02-05T21:03:08.546Z,6.47
2023-02-05T21:13:08.490Z,6.19
2023-02-05T21:23:08.516Z,5.97
2023-02-05T21:33:08.610Z,5.79
2023-02-05T21:43:08.606Z,5.65
2023-02-05T21:53:08.669Z,5.53
2023-02-05T22:03:08.883Z,5.40
2023-02-05T22:13:08.556Z,5.25
2023-02-05T22:23:08.578Z,5.12
2023-02-05T22:33:08.832Z,4.97
2023-02-05T22:43:08.599Z,4.81
2023-02-05T22:53:08.603Z,4.63
2023-02-05T23:03:08.647Z,4.44
2023-02-05T23:13:08.616Z,4.25
2023-02-05T23:23:08.662Z,4.01
2023-02-05T23:33:08.631Z,3.76
2023-02-05T23:43:08.679Z,3.54
2023-02-05T23:53:08.684Z,3.37
